Time;durP1;ratioP1;P1;durP2;ratioP2;P2;SDS_P1;SDS_P2;PMS_P1;PMS_P2;Temp;Humidity;BMP_temperature;BMP_pressure;BME280_temperature;BME280_humidity;BME280_pressure;Samples;Min_cycle;Max_cycle;Signal;HPM_P1;HPM_P2
2022/04/05 00:02:16;;;;;;;8.90;4.75;;;;;;;8.97;55.66;99771.66;4993960;28;20022;-62
2022/04/05 00:04:42;;;;;;;7.70;4.75;;;;;;;8.93;55.65;99766.47;4993051;28;20030;-62
2022/04/05 00:07:07;;;;;;;8.63;4.80;;;;;;;9.02;56.00;99766.19;4994020;28;20076;-61
2022/04/05 00:09:33;;;;;;;8.55;4.45;;;;;;;8.94;56.39;99758.47;4993942;28;20045;-62
2022/04/05 00:11:59;;;;;;;11.60;5.40;;;;;;;8.93;56.36;99756.72;4993527;28;20078;-62
2022/04/05 00:14:25;;;;;;;7.82;4.85;;;;;;;8.97;55.81;99762.81;4994219;28;20783;-62
2022/04/05 00:16:54;;;;;;;9.02;5.30;;;;;;;8.98;56.07;99759.22;4993114;28;20027;-62
2022/04/05 00:19:21;;;;;;;7.38;4.68;;;;;;;8.94;55.63;99753.19;4993413;28;20072;-62
2022/04/05 00:21:48;;;;;;;9.10;5.10;;;;;;;8.94;55.20;99753.19;4993708;28;20022;-62
2022/04/05 00:24:14;;;;;;;8.95;4.45;;;;;;;8.98;55.89;99753.94;4993251;28;20048;-62
2022/04/05 00:26:39;;;;;;;8.32;4.88;;;;;;;8.98;56.72;99745.97;4975263;28;20030;-62
2022/04/05 00:29:04;;;;;;;10.05;5.25;;;;;;;8.97;56.02;99752.19;4993426;28;20086;-62
2022/04/05 00:31:30;;;;;;;7.80;4.28;;;;;;;8.98;57.12;99732.69;4993542;28;20033;-62
2022/04/05 00:33:55;;;;;;;7.63;4.30;;;;;;;8.94;56.20;99736.38;4994243;28;20370;-62
2022/04/05 00:36:21;;;;;;;12.63;4.75;;;;;;;8.93;55.89;99724.00;4993582;28;20074;-62
2022/04/05 00:38:46;;;;;;;9.05;4.57;;;;;;;8.90;56.42;99722.34;4993013;28;20029;-62
2022/04/05 00:41:11;;;;;;;7.18;4.43;;;;;;;8.91;56.17;99720.56;4993195;28;20157;-61
2022/04/05 00:43:37;;;;;;;7.53;4.60;;;;;;;8.95;55.67;99722.19;4993358;28;20026;-61
2022/04/05 00:46:02;;;;;;;11.52;4.88;;;;;;;8.92;55.82;99719.63;4992991;28;20039;-61
2022/04/05 00:48:48;;;;;;;7.43;4.93;;;;;;;8.96;56.30;99718.66;4993624;28;20419;-61
2022/04/05 00:51:14;;;;;;;8.55;4.68;;;;;;;8.95;55.90;99716.88;4993194;28;20092;-62
2022/04/05 00:53:43;;;;;;;6.75;4.63;;;;;;;8.94;56.07;99715.16;4993406;28;20030;-62
2022/04/05 00:56:11;;;;;;;8.40;4.50;;;;;;;8.96;55.73;99716.00;4992544;28;20096;-62
2022/04/05 00:58:38;;;;;;;7.65;4.65;;;;;;;8.94;55.95;99718.69;4992260;28;20039;-62
2022/04/05 01:01:05;;;;;;;6.55;4.68;;;;;;;8.93;56.24;99716.06;4992569;28;20553;-62
2022/04/05 01:03:32;;;;;;;5.68;4.03;;;;;;;8.95;55.84;99717.75;4992148;28;20037;-62
2022/04/05 01:06:01;;;;;;;9.80;4.63;;;;;;;8.99;56.84;99723.84;4993211;28;20038;-62
2022/04/05 01:08:28;;;;;;;8.65;4.28;;;;;;;8.96;56.01;99729.25;4993282;28;20089;-62
2022/04/05 01:10:54;;;;;;;7.32;4.60;;;;;;;8.91;56.07;99724.06;4993222;28;20032;-62
2022/04/05 01:13:20;;;;;;;6.72;4.47;;;;;;;8.93;56.54;99729.31;4992415;28;20036;-62
2022/04/05 01:15:45;;;;;;;9.45;4.43;;;;;;;8.93;55.98;99729.31;4992813;28;20030;-62
2022/04/05 01:18:13;;;;;;;7.50;4.35;;;;;;;8.92;56.27;99717.88;4974962;28;20033;-62
2022/04/05 01:20:46;;;;;;;10.02;5.22;;;;;;;8.94;56.66;99725.78;5129949;27;20123;-63
2022/04/05 01:23:11;;;;;;;10.27;4.72;;;;;;;8.91;56.54;99720.56;5129483;28;20096;-63
2022/04/05 01:25:42;;;;;;;7.45;4.78;;;;;;;8.90;56.52;99713.50;5129578;28;20502;-63
2022/04/05 01:28:07;;;;;;;7.93;4.85;;;;;;;8.89;57.50;99712.66;5129991;28;20027;-63
2022/04/05 01:30:32;;;;;;;7.38;4.72;;;;;;;8.86;57.99;99711.88;5129229;28;20020;-63
2022/04/05 01:32:59;;;;;;;7.43;4.55;;;;;;;8.88;57.75;99716.22;5128973;28;20375;-63
2022/04/05 01:35:25;;;;;;;10.20;5.10;;;;;;;8.87;57.13;99709.19;5129650;28;20045;-63
2022/04/05 01:37:50;;;;;;;6.55;4.32;;;;;;;8.84;58.12;99714.59;5123950;28;20020;-63
2022/04/05 01:40:16;;;;;;;9.52;4.90;;;;;;;8.84;57.52;99708.41;5125294;27;20058;-63
2022/04/05 01:42:41;;;;;;;9.23;4.93;;;;;;;8.80;58.28;99704.97;5117955;28;20059;-63
2022/04/05 01:45:07;;;;;;;7.25;4.70;;;;;;;8.84;58.91;99703.09;5125506;28;20038;-63
2022/04/05 01:47:32;;;;;;;7.88;4.53;;;;;;;8.80;58.60;99701.44;5108864;28;20028;-63
2022/04/05 01:49:58;;;;;;;7.97;4.55;;;;;;;8.73;58.88;99706.06;5108689;28;20049;-62
2022/04/05 01:52:23;;;;;;;8.73;4.63;;;;;;;8.75;58.47;99692.75;5107655;28;20055;-62
2022/04/05 01:54:49;;;;;;;8.10;4.32;;;;;;;8.71;59.54;99692.00;5108200;28;20028;-63
2022/04/05 01:57:17;;;;;;;6.28;4.13;;;;;;;8.73;58.96;99690.16;5108014;28;20020;-63
2022/04/05 01:59:43;;;;;;;6.93;4.03;;;;;;;8.76;58.77;99694.50;5108153;28;20482;-63
2022/04/05 02:02:10;;;;;;;9.40;4.45;;;;;;;8.75;59.59;99695.41;5108503;28;20154;-63
2022/04/05 02:04:37;;;;;;;7.60;4.43;;;;;;;8.71;59.59;99693.78;5108708;28;20024;-63
2022/04/05 02:07:11;;;;;;;8.38;4.35;;;;;;;8.70;59.71;99690.25;5108457;28;20025;-63
2022/04/05 02:09:37;;;;;;;9.75;4.97;;;;;;;8.73;59.47;99684.00;5107779;28;20387;-63
2022/04/05 02:12:03;;;;;;;7.78;4.32;;;;;;;8.70;59.79;99687.59;5108509;28;20030;-63
2022/04/05 02:14:28;;;;;;;7.90;4.60;;;;;;;8.57;59.28;99666.81;5104698;28;20157;-63
2022/04/05 02:16:54;;;;;;;9.48;4.15;;;;;;;8.68;59.73;99680.63;5108469;28;20111;-63
2022/04/05 02:19:19;;;;;;;10.63;5.50;;;;;;;8.72;59.40;99676.94;5107559;28;20043;-63
2022/04/05 02:21:44;;;;;;;6.88;4.65;;;;;;;8.67;58.70;99673.56;5108240;28;20020;-63
2022/04/05 02:24:10;;;;;;;8.40;4.70;;;;;;;8.68;59.13;99672.66;5102721;28;20399;-63
2022/04/05 02:26:36;;;;;;;6.80;4.35;;;;;;;8.71;58.98;99672.56;5087628;28;20039;-63
2022/04/05 02:29:02;;;;;;;7.88;4.10;;;;;;;8.71;59.25;99673.44;5086910;28;20020;-62
2022/04/05 02:31:28;;;;;;;7.82;4.78;;;;;;;8.68;58.62;99672.66;5077971;28;20036;-63
2022/04/05 02:33:53;;;;;;;9.02;4.93;;;;;;;8.71;58.37;99669.91;5074260;28;20085;-63
2022/04/05 02:36:19;;;;;;;11.00;5.07;;;;;;;8.74;58.79;99680.44;5074203;28;20032;-63
2022/04/05 02:38:44;;;;;;;8.68;4.72;;;;;;;8.71;57.64;99676.09;5073698;28;20024;-63
2022/04/05 02:41:09;;;;;;;9.30;4.15;;;;;;;8.70;58.15;99663.75;5074102;28;20021;-63
2022/04/05 02:43:36;;;;;;;6.18;4.30;;;;;;;8.79;58.30;99675.84;5073833;28;20697;-63
2022/04/05 02:46:02;;;;;;;7.30;4.32;;;;;;;8.81;57.89;99682.81;5072608;28;20125;-63
2022/04/05 02:48:28;;;;;;;7.68;4.10;;;;;;;8.79;57.93;99681.16;5053243;28;20435;-63
2022/04/05 02:50:53;;;;;;;8.43;5.32;;;;;;;8.77;58.17;99678.56;5035588;28;20120;-63
2022/04/05 02:53:19;;;;;;;8.35;4.97;;;;;;;8.62;58.32;99651.63;5053787;28;20029;-63
2022/04/05 02:55:45;;;;;;;9.00;4.00;;;;;;;8.73;58.58;99681.34;5053837;28;20028;-63
2022/04/05 02:58:11;;;;;;;8.20;4.10;;;;;;;8.70;58.87;99682.28;5062032;28;20535;-63
2022/04/05 03:00:36;;;;;;;7.20;4.20;;;;;;;8.76;58.61;99684.78;5053230;28;20032;-64
2022/04/05 03:03:03;;;;;;;8.50;4.40;;;;;;;8.75;58.67;99682.16;5061094;28;20024;-63
2022/04/05 03:05:29;;;;;;;9.82;4.10;;;;;;;8.72;59.12;99676.94;5071418;28;20662;-63
2022/04/05 03:07:55;;;;;;;9.38;4.35;;;;;;;8.69;59.06;99677.03;5072268;28;20032;-63
2022/04/05 03:10:20;;;;;;;6.82;3.92;;;;;;;8.69;60.70;99679.69;5073487;28;20441;-63
2022/04/05 03:12:46;;;;;;;6.45;4.18;;;;;;;8.65;64.35;99678.91;5073638;28;20043;-63
2022/04/05 03:15:11;;;;;;;7.78;4.68;;;;;;;8.61;64.68;99679.06;5072988;28;20017;-63
2022/04/05 03:17:42;;;;;;;8.52;4.32;;;;;;;8.43;65.72;99676.97;5085962;28;20079;-63
2022/04/05 03:20:10;;;;;;;7.53;4.82;;;;;;;8.37;68.42;99682.44;5092801;28;20769;-63
2022/04/05 03:22:35;;;;;;;10.15;5.13;;;;;;;8.28;68.19;99674.75;5093271;28;20391;-63
2022/04/05 03:25:01;;;;;;;6.93;4.38;;;;;;;8.20;70.09;99682.91;5093102;28;20024;-63
2022/04/05 03:27:26;;;;;;;8.68;4.43;;;;;;;8.12;70.11;99673.41;5093131;28;20049;-63
2022/04/05 03:29:51;;;;;;;8.23;4.82;;;;;;;8.13;70.52;99683.09;5093334;28;20012;-62
2022/04/05 03:32:17;;;;;;;10.45;5.55;;;;;;;8.07;71.23;99678.84;5093598;28;20024;-62
2022/04/05 03:34:42;;;;;;;8.45;4.70;;;;;;;8.01;72.52;99682.53;5092853;28;20522;-62
2022/04/05 03:37:08;;;;;;;8.23;5.07;;;;;;;7.93;72.39;99678.34;5061466;28;20055;-62
2022/04/05 03:39:33;;;;;;;12.05;5.07;;;;;;;7.89;73.30;99666.97;5063769;28;20067;-62
2022/04/05 03:41:59;;;;;;;8.00;4.90;;;;;;;7.90;73.79;99684.63;5072278;28;20035;-62
2022/04/05 03:44:25;;;;;;;11.10;4.88;;;;;;;7.83;74.98;99672.44;5071843;28;20033;-62
2022/04/05 03:46:52;;;;;;;10.43;5.30;;;;;;;7.85;76.27;99680.34;5072959;28;20475;-62
2022/04/05 03:49:18;;;;;;;10.23;5.53;;;;;;;7.79;75.89;99686.66;5072770;28;20078;-62
2022/04/05 03:51:43;;;;;;;8.95;5.10;;;;;;;7.79;75.75;99683.16;5072545;28;20410;-62
2022/04/05 03:54:09;;;;;;;10.60;5.28;;;;;;;7.80;75.31;99687.53;5072423;28;20029;-62
2022/04/05 03:56:34;;;;;;;9.98;5.53;;;;;;;7.78;74.96;99690.22;5072389;28;20059;-62
2022/04/05 03:59:00;;;;;;;11.45;5.72;;;;;;;7.76;75.24;99686.75;5071719;28;20062;-62
2022/04/05 04:01:25;;;;;;;8.88;5.70;;;;;;;7.78;76.22;99682.28;5071842;28;20103;-62
2022/04/05 04:03:51;;;;;;;8.23;5.45;;;;;;;7.79;74.90;99685.81;5072449;28;20055;-62
2022/04/05 04:06:16;;;;;;;11.52;5.20;;;;;;;7.81;75.85;99683.97;5072253;28;20021;-62
2022/04/05 04:08:41;;;;;;;9.18;5.55;;;;;;;7.79;75.27;99680.53;5069840;28;20099;-62
2022/04/05 04:11:07;;;;;;;10.63;5.28;;;;;;;7.79;73.65;99680.53;5072054;28;20108;-62
2022/04/05 04:13:32;;;;;;;10.82;5.25;;;;;;;7.78;73.89;99678.75;5072021;28;20031;-63
2022/04/05 04:15:58;;;;;;;10.25;4.72;;;;;;;7.77;72.85;99669.97;5071055;28;20036;-63
2022/04/05 04:18:24;;;;;;;9.57;5.22;;;;;;;7.79;72.29;99672.56;5091318;28;20043;-63
2022/04/05 04:20:49;;;;;;;12.60;7.95;;;;;;;7.74;72.34;99670.03;5092275;28;20031;-63
2022/04/05 04:23:16;;;;;;;8.20;4.80;;;;;;;7.81;73.91;99674.25;5092732;28;20035;-62
2022/04/05 04:25:42;;;;;;;9.30;5.32;;;;;;;7.79;73.83;99680.53;5091263;28;20024;-62
2022/04/05 04:28:08;;;;;;;7.50;4.40;;;;;;;7.81;74.05;99671.59;5090803;28;20107;-62
2022/04/05 04:30:35;;;;;;;8.65;5.82;;;;;;;7.80;75.27;99682.25;5092186;28;20032;-62
2022/04/05 04:33:01;;;;;;;7.72;4.28;;;;;;;7.78;75.44;99679.63;5091990;28;20046;-62
2022/04/05 04:35:27;;;;;;;9.82;5.28;;;;;;;7.75;75.77;99685.03;5090769;28;20024;-62
2022/04/05 04:37:53;;;;;;;12.52;5.07;;;;;;;7.72;74.84;99679.81;5092413;28;20447;-62
2022/04/05 04:40:19;;;;;;;8.73;4.90;;;;;;;7.71;74.48;99672.75;5072051;28;20012;-62
2022/04/05 04:42:44;;;;;;;8.10;5.20;;;;;;;7.64;75.18;99679.13;5051942;28;20045;-63
2022/04/05 04:45:10;;;;;;;10.73;6.72;;;;;;;7.64;76.50;99680.91;5051544;28;20370;-62
2022/04/05 04:47:36;;;;;;;11.23;4.65;;;;;;;7.60;77.81;99680.13;5054060;28;20028;-62
2022/04/05 04:50:01;;;;;;;12.70;5.20;;;;;;;7.56;79.40;99688.19;5062083;28;20033;-62
2022/04/05 04:52:27;;;;;;;11.95;5.32;;;;;;;7.58;81.43;99687.22;5050846;28;20096;-62
2022/04/05 04:54:52;;;;;;;12.80;5.80;;;;;;;7.53;82.64;99694.41;5068853;28;20385;-63
2022/04/05 04:57:19;;;;;;;11.52;5.45;;;;;;;7.53;83.41;99689.13;5071844;28;20060;-63
2022/04/05 04:59:47;;;;;;;13.57;6.00;;;;;;;7.49;84.88;99692.78;5071568;28;20024;-62
2022/04/05 05:02:13;;;;;;;9.38;5.60;;;;;;;7.47;85.19;99689.28;5071513;28;20033;-62
2022/04/05 05:04:38;;;;;;;12.63;5.97;;;;;;;7.36;85.77;99683.41;5071221;28;20029;-62
2022/04/05 05:07:04;;;;;;;25.35;6.50;;;;;;;7.31;86.96;99682.66;5071319;28;20104;-62
2022/04/05 05:09:29;;;;;;;10.40;5.90;;;;;;;7.31;87.50;99685.31;5071284;28;20096;-62
2022/04/05 05:11:55;;;;;;;9.13;5.50;;;;;;;7.28;88.20;99680.06;5070834;28;20026;-62
2022/04/05 05:14:20;;;;;;;10.25;6.43;;;;;;;7.27;89.18;99680.97;5070843;28;20031;-62
2022/04/05 05:16:46;;;;;;;9.18;6.22;;;;;;;7.23;89.55;99674.00;5077079;28;20024;-62
2022/04/05 05:19:11;;;;;;;11.82;6.82;;;;;;;7.17;89.82;99663.59;5090029;28;20048;-62
2022/04/05 05:21:37;;;;;;;10.02;6.10;;;;;;;7.23;89.71;99678.44;5090645;28;20531;-62
2022/04/05 05:24:02;;;;;;;10.80;6.28;;;;;;;7.25;89.65;99672.19;5091160;28;20059;-62
2022/04/05 05:26:28;;;;;;;11.52;6.35;;;;;;;7.26;90.15;99678.38;5091636;28;20055;-61
2022/04/05 05:28:53;;;;;;;10.25;6.75;;;;;;;7.19;89.08;99674.13;5090980;28;20024;-61
2022/04/05 05:31:19;;;;;;;12.95;7.20;;;;;;;7.20;89.20;99671.44;5090480;28;20028;-61
2022/04/05 05:33:44;;;;;;;16.73;7.88;;;;;;;7.22;89.45;99667.00;5090990;28;20381;-61
2022/04/05 05:36:10;;;;;;;16.30;8.02;;;;;;;7.22;89.05;99671.41;5091237;28;20020;-61
2022/04/05 05:38:35;;;;;;;12.35;6.35;;;;;;;7.13;87.28;99680.47;5087638;28;20075;-61
2022/04/05 05:41:01;;;;;;;10.57;7.10;;;;;;;7.22;87.62;99677.56;5070931;28;20028;-61
2022/04/05 05:43:27;;;;;;;13.00;6.47;;;;;;;7.22;87.62;99674.94;5066889;28;20020;-61
2022/04/05 05:45:52;;;;;;;10.57;6.10;;;;;;;7.21;86.61;99680.25;5032739;28;20021;-61
2022/04/05 05:48:18;;;;;;;12.63;6.50;;;;;;;7.18;86.94;99667.97;5050119;28;20032;-61
2022/04/05 05:50:43;;;;;;;13.05;6.80;;;;;;;7.27;87.27;99675.69;5050770;28;20029;-62
2022/04/05 05:53:09;;;;;;;12.63;7.80;;;;;;;7.28;86.79;99688.00;5051253;28;20036;-61
2022/04/05 05:55:35;;;;;;;12.27;6.72;;;;;;;7.30;87.23;99688.84;5051911;28;20153;-62
2022/04/05 05:58:03;;;;;;;10.02;5.70;;;;;;;7.34;86.89;99686.97;5089802;28;20024;-62
2022/04/05 06:00:29;;;;;;;10.60;6.15;;;;;;;7.31;86.37;99681.78;5088707;28;20101;-61
2022/04/05 06:02:58;;;;;;;13.05;8.10;;;;;;;7.32;86.74;99688.78;5089092;28;20020;-61
2022/04/05 06:05:24;;;;;;;12.52;6.85;;;;;;;7.27;87.49;99688.91;5080488;28;20071;-61
2022/04/05 06:07:50;;;;;;;11.68;6.72;;;;;;;7.33;87.66;99686.09;5072643;28;20407;-62
2022/04/05 06:10:16;;;;;;;9.57;5.95;;;;;;;7.33;87.29;99696.69;5070432;28;20021;-62
2022/04/05 06:12:45;;;;;;;13.82;7.63;;;;;;;7.29;88.59;99689.75;5068834;28;20138;-61
2022/04/05 06:15:12;;;;;;;12.15;6.53;;;;;;;7.32;88.55;99700.25;5063194;28;20048;-62
2022/04/05 06:17:43;;;;;;;9.75;6.22;;;;;;;7.30;88.20;99696.78;5078738;28;20028;-62
2022/04/05 06:20:10;;;;;;;9.85;5.82;;;;;;;7.34;88.24;99701.09;5092906;28;20119;-62
2022/04/05 06:22:47;;;;;;;13.98;6.95;;;;;;;7.32;88.03;99705.53;5091603;28;20080;-62
2022/04/05 06:25:16;;;;;;;10.95;7.20;;;;;;;7.34;87.61;99713.44;5092005;28;20016;-62
2022/04/05 06:27:42;;;;;;;15.30;7.28;;;;;;;7.44;87.84;99728.19;5069724;28;20043;-62
2022/04/05 06:30:09;;;;;;;13.35;7.32;;;;;;;7.46;87.75;99716.63;5066829;28;20665;-62
2022/04/05 06:32:35;;;;;;;15.27;6.47;;;;;;;7.39;88.54;99701.84;5052924;28;20469;-62
2022/04/05 06:35:03;;;;;;;17.40;6.97;;;;;;;7.45;88.73;99706.09;5052868;28;20064;-61
2022/04/05 06:37:28;;;;;;;12.80;7.00;;;;;;;7.46;88.17;99710.50;5053154;28;20033;-61
2022/04/05 06:39:54;;;;;;;9.90;6.53;;;;;;;7.49;88.97;99713.94;5066922;28;20032;-61
2022/04/05 06:42:20;;;;;;;11.57;6.50;;;;;;;7.52;88.89;99710.34;5062832;28;20436;-61
2022/04/05 06:44:45;;;;;;;11.40;7.30;;;;;;;7.53;88.69;99712.94;5050537;28;20039;-62
2022/04/05 06:47:11;;;;;;;13.95;8.45;;;;;;;7.52;88.91;99708.56;5057275;28;20017;-62
2022/04/05 06:49:38;;;;;;;13.45;7.13;;;;;;;7.53;88.58;99714.72;5068888;28;20044;-63
2022/04/05 06:52:04;;;;;;;12.85;7.88;;;;;;;7.51;88.74;99709.47;5069576;28;20028;-62
2022/04/05 06:54:29;;;;;;;11.85;7.47;;;;;;;7.50;88.63;99706.84;5071615;28;20032;-62
2022/04/05 06:56:55;;;;;;;16.95;7.78;;;;;;;7.52;88.39;99705.91;5070959;28;20514;-62
2022/04/05 06:59:20;;;;;;;16.63;8.30;;;;;;;7.53;88.40;99707.66;5070654;28;20035;-62
2022/04/05 07:01:46;;;;;;;17.25;8.60;;;;;;;7.56;87.92;99696.97;5054394;28;20032;-62
2022/04/05 07:04:11;;;;;;;16.63;8.85;;;;;;;7.55;87.81;99686.44;5051956;28;20027;-62
2022/04/05 07:06:37;;;;;;;14.00;8.32;;;;;;;7.60;86.18;99703.94;5051898;28;20105;-62
2022/04/05 07:09:03;;;;;;;16.23;7.90;;;;;;;7.66;85.76;99706.44;5060317;28;20115;-62
2022/04/05 07:11:29;;;;;;;15.43;12.38;;;;;;;7.67;84.89;99700.25;5073050;28;20060;-62
2022/04/05 07:13:54;;;;;;;15.98;10.45;;;;;;;7.69;84.53;99695.75;5073017;28;20024;-62
2022/04/05 07:16:19;;;;;;;15.55;7.80;;;;;;;7.72;84.51;99700.13;5073606;28;20032;-62
2022/04/05 07:18:45;;;;;;;14.93;7.47;;;;;;;7.68;83.37;99694.03;5091956;28;20044;-62
2022/04/05 07:21:11;;;;;;;12.38;6.28;;;;;;;7.76;83.76;99704.41;5093481;28;20099;-62
2022/04/05 07:23:37;;;;;;;12.20;6.80;;;;;;;7.75;83.07;99697.38;5093981;28;20088;-62
2022/04/05 07:26:03;;;;;;;11.77;6.97;;;;;;;7.81;82.42;99694.56;5093560;28;20026;-62
2022/04/05 07:28:29;;;;;;;12.50;5.80;;;;;;;7.95;80.17;99693.31;5093837;28;20038;-62
2022/04/05 07:30:54;;;;;;;8.00;5.68;;;;;;;7.84;79.29;99699.81;5093600;28;20028;-62
2022/04/05 07:33:20;;;;;;;9.00;5.38;;;;;;;7.84;79.21;99700.66;5092901;28;20027;-62
2022/04/05 07:35:45;;;;;;;14.07;6.38;;;;;;;7.90;78.46;99694.34;5092531;28;20430;-63
2022/04/05 07:38:12;;;;;;;11.52;5.72;;;;;;;7.94;78.01;99696.84;5092557;28;20027;-62
2022/04/05 07:40:51;;;;;;;10.23;6.40;;;;;;;7.96;79.34;99695.03;5064951;28;20165;-62
2022/04/05 07:43:20;;;;;;;43.05;22.10;;;;;;;8.01;80.39;99694.91;5052819;28;20027;-63
2022/04/05 07:45:49;;;;;;;18.30;10.63;;;;;;;8.04;79.35;99698.34;5053018;28;20024;-62
2022/04/05 07:48:20;;;;;;;75.28;29.42;;;;;;;8.07;78.76;99707.13;5053012;28;20494;-62
2022/04/05 07:50:49;;;;;;;238.32;77.00;;;;;;;8.12;78.47;99705.22;5052601;28;20027;-62
2022/04/05 07:53:15;;;;;;;23.73;11.63;;;;;;;8.17;78.40;99693.56;5052300;28;20029;-63
2022/04/05 07:55:41;;;;;;;13.70;6.53;;;;;;;8.24;79.25;99695.16;5052138;28;20396;-62
2022/04/05 07:58:06;;;;;;;12.63;6.72;;;;;;;8.31;78.96;99693.19;5052517;28;20025;-62
2022/04/05 08:00:32;;;;;;;9.73;6.22;;;;;;;8.25;79.21;99690.75;5052629;28;20032;-62
2022/04/05 08:02:58;;;;;;;7.93;5.07;;;;;;;8.34;80.38;99694.00;5065852;28;20043;-62
2022/04/05 08:05:23;;;;;;;8.73;6.00;;;;;;;8.31;79.57;99695.84;5072308;28;20028;-63
2022/04/05 08:07:49;;;;;;;9.88;6.32;;;;;;;8.31;79.23;99701.16;5072580;28;20029;-62
2022/04/05 08:10:16;;;;;;;10.13;6.43;;;;;;;8.25;79.27;99696.91;5071741;28;20031;-62
2022/04/05 08:12:47;;;;;;;9.82;5.78;;;;;;;8.31;79.14;99706.44;5071563;28;20042;-62
2022/04/05 08:15:18;;;;;;;12.05;6.70;;;;;;;8.43;79.16;99692.84;5072104;28;20036;-62
2022/04/05 08:17:44;;;;;;;11.75;6.72;;;;;;;8.56;78.90;99702.19;5085819;28;20024;-62
2022/04/05 08:20:11;;;;;;;13.13;6.15;;;;;;;8.69;79.47;99716.81;5072514;28;20098;-62
2022/04/05 08:22:36;;;;;;;12.18;5.60;;;;;;;8.69;79.97;99708.84;5072401;28;20032;-62
2022/04/05 08:25:03;;;;;;;10.77;6.63;;;;;;;8.68;79.77;99707.97;5071884;28;20059;-62
2022/04/05 08:27:28;;;;;;;10.05;6.30;;;;;;;8.75;79.90;99713.97;5072175;28;20032;-62
2022/04/05 08:29:54;;;;;;;8.50;5.97;;;;;;;8.72;79.61;99695.50;5070410;28;20029;-63
2022/04/05 08:32:19;;;;;;;12.38;6.43;;;;;;;8.68;79.66;99707.97;5071981;28;20095;-63
2022/04/05 08:34:45;;;;;;;14.50;6.47;;;;;;;8.66;80.86;99714.25;5071549;28;20024;-63
2022/04/05 08:37:12;;;;;;;10.93;6.45;;;;;;;8.65;81.27;99717.84;5072038;28;20032;-63
2022/04/05 08:39:39;;;;;;;12.18;6.15;;;;;;;8.66;79.92;99711.59;5084333;28;20451;-63
2022/04/05 08:42:05;;;;;;;10.00;5.32;;;;;;;8.89;78.75;99703.81;5091853;28;20379;-63
2022/04/05 08:44:31;;;;;;;11.88;6.80;;;;;;;8.67;79.38;99706.25;5073857;28;20393;-63
2022/04/05 08:47:01;;;;;;;11.27;6.28;;;;;;;8.61;79.40;99702.91;5071704;28;20038;-63
2022/04/05 08:49:28;;;;;;;10.88;6.22;;;;;;;8.63;78.81;99704.59;5070824;28;20024;-63
2022/04/05 08:51:54;;;;;;;11.32;6.75;;;;;;;8.70;78.47;99714.13;5091195;28;20020;-63
2022/04/05 08:54:19;;;;;;;13.95;7.28;;;;;;;8.72;78.18;99709.63;5091224;28;20039;-63
2022/04/05 08:56:46;;;;;;;14.75;8.93;;;;;;;8.75;76.89;99703.38;5089286;28;20035;-63
2022/04/05 08:59:11;;;;;;;13.45;7.70;;;;;;;8.77;76.90;99702.41;5071604;28;20372;-63
2022/04/05 09:01:37;;;;;;;14.45;7.60;;;;;;;8.79;76.58;99705.91;5071428;28;20020;-63
2022/04/05 09:04:04;;;;;;;14.43;6.65;;;;;;;8.79;75.34;99697.06;5071055;28;20029;-63
2022/04/05 09:06:31;;;;;;;11.52;6.55;;;;;;;8.83;75.05;99704.03;5071550;28;20039;-63
2022/04/05 09:09:10;;;;;;;11.50;5.28;;;;;;;8.81;73.30;99704.03;5077653;28;20024;-63
2022/04/05 09:11:43;;;;;;;10.45;6.78;;;;;;;8.92;74.10;99706.38;5091512;28;20031;-63
2022/04/05 09:14:08;;;;;;;12.18;6.75;;;;;;;8.89;73.35;99690.56;5091762;28;20097;-64
2022/04/05 09:16:34;;;;;;;9.20;6.15;;;;;;;8.96;72.57;99703.56;5091914;28;20055;-63
2022/04/05 09:19:08;;;;;;;14.80;6.38;;;;;;;9.03;73.01;99709.56;5091075;28;20554;-63
2022/04/05 09:21:50;;;;;;;9.32;5.72;;;;;;;9.12;73.36;99711.94;5091183;28;20468;-64
2022/04/05 09:24:15;;;;;;;9.60;6.10;;;;;;;9.13;72.96;99705.69;5091345;28;20036;-64
2022/04/05 09:26:46;;;;;;;9.73;5.90;;;;;;;9.16;72.82;99710.91;5090934;28;20024;-64
2022/04/05 09:29:14;;;;;;;6.80;4.90;;;;;;;9.20;71.96;99707.25;5091545;28;20103;-64
2022/04/05 09:31:48;;;;;;;10.38;6.05;;;;;;;9.27;72.61;99711.44;5091197;28;20057;-63
2022/04/05 09:34:19;;;;;;;9.20;6.05;;;;;;;9.30;72.88;99714.00;5056263;28;20039;-63
2022/04/05 09:36:51;;;;;;;10.23;6.82;;;;;;;9.32;72.55;99706.88;5051530;28;20446;-63
2022/04/05 09:39:16;;;;;;;9.68;5.75;;;;;;;9.36;72.14;99711.13;5060150;28;20028;-63
2022/04/05 09:41:43;;;;;;;8.25;5.03;;;;;;;9.43;72.49;99720.66;5073607;28;20031;-63
2022/04/05 09:44:09;;;;;;;8.18;5.30;;;;;;;9.43;71.13;99712.69;5074711;28;20035;-63
2022/04/05 09:46:36;;;;;;;11.18;5.85;;;;;;;9.55;73.16;99714.06;5074825;28;20025;-63
2022/04/05 09:49:29;;;;;;;11.65;5.35;;;;;;;9.61;71.25;99713.84;5075162;28;20467;-63
2022/04/05 09:51:55;;;;;;;8.23;5.65;;;;;;;9.61;71.11;99716.50;5075026;28;20027;-64
2022/04/05 09:54:27;;;;;;;10.43;6.30;;;;;;;9.56;70.59;99716.66;5075024;28;20096;-64
2022/04/05 09:57:03;;;;;;;9.85;5.70;;;;;;;9.63;69.47;99710.25;5074688;28;20039;-64
2022/04/05 09:59:38;;;;;;;12.90;5.78;;;;;;;9.70;69.96;99711.78;5074044;28;20080;-64
2022/04/05 10:02:11;;;;;;;9.85;5.72;;;;;;;9.65;69.59;99704.88;5074761;28;20024;-64
2022/04/05 10:05:02;;;;;;;11.27;7.00;;;;;;;9.74;70.24;99710.75;5074593;28;20154;-64
2022/04/05 10:07:30;;;;;;;9.98;5.95;;;;;;;9.73;69.44;99724.06;5074484;28;20411;-64
2022/04/05 10:09:57;;;;;;;13.98;6.53;;;;;;;9.76;70.28;99716.88;5074186;28;20021;-64
2022/04/05 10:12:23;;;;;;;11.93;7.57;;;;;;;9.88;70.75;99727.09;5074681;28;20080;-64
2022/04/05 10:14:49;;;;;;;10.57;5.65;;;;;;;9.86;69.72;99723.59;5074093;28;20060;-64
2022/04/05 10:17:15;;;;;;;11.07;6.22;;;;;;;9.89;71.13;99715.53;5083684;28;20081;-64
2022/04/05 10:19:45;;;;;;;9.70;5.63;;;;;;;9.93;71.92;99721.59;5094327;28;20037;-64
2022/04/05 10:22:12;;;;;;;10.88;6.25;;;;;;;9.96;72.75;99725.03;5094458;28;20024;-64
2022/04/05 10:24:39;;;;;;;9.40;5.75;;;;;;;9.95;72.05;99725.09;5094279;28;20533;-65
2022/04/05 10:27:09;;;;;;;8.27;4.72;;;;;;;10.05;71.86;99730.00;5078319;28;20549;-65
2022/04/05 10:29:35;;;;;;;9.30;5.85;;;;;;;10.10;70.95;99728.09;5073637;28;20028;-64
2022/04/05 10:32:33;;;;;;;12.25;6.50;;;;;;;10.05;72.02;99730.00;5074200;28;20028;-65
2022/04/05 10:35:08;;;;;;;11.52;5.28;;;;;;;10.08;70.44;99729.09;5073030;28;20389;-65
2022/04/05 10:37:38;;;;;;;10.20;6.32;;;;;;;10.18;70.07;99722.53;5074053;28;20027;-65
2022/04/05 10:40:10;;;;;;;12.20;5.80;;;;;;;10.21;70.46;99719.75;5074091;28;20039;-65
2022/04/05 10:42:41;;;;;;;7.95;4.75;;;;;;;10.30;69.52;99714.97;5061497;28;20399;-65
2022/04/05 10:45:10;;;;;;;8.80;5.72;;;;;;;10.37;69.04;99713.81;5055861;28;20031;-65
2022/04/05 10:48:01;;;;;;;8.65;5.32;;;;;;;10.37;68.85;99711.16;5054431;28;20045;-65
2022/04/05 10:50:27;;;;;;;6.93;4.53;;;;;;;10.30;69.85;99714.97;5045004;28;20036;-65
2022/04/05 10:53:12;;;;;;;9.02;5.50;;;;;;;10.37;70.43;99712.94;5053132;28;20036;-65
2022/04/05 10:56:07;;;;;;;10.63;5.60;;;;;;;10.30;70.06;99712.31;5066792;28;20032;-65
2022/04/05 10:58:37;;;;;;;9.68;5.35;;;;;;;10.29;70.68;99718.56;5073951;28;20025;-65
2022/04/05 11:01:21;;;;;;;9.10;5.30;;;;;;;10.21;71.69;99714.44;5072900;28;20023;-65
2022/04/05 11:04:16;;;;;;;9.82;5.15;;;;;;;10.19;70.88;99709.19;5060057;28;20484;-64
2022/04/05 11:09:33;;;;;;;13.02;6.07;;;;;;;10.36;70.71;99712.06;5063849;28;20028;-65
2022/04/05 11:12:04;;;;;;;12.23;5.63;;;;;;;10.37;71.05;99708.50;5073685;28;20027;-65
2022/04/05 11:14:41;;;;;;;12.90;5.03;;;;;;;10.42;70.85;99706.56;5073261;28;20040;-65
2022/04/05 11:17:09;;;;;;;7.90;5.38;;;;;;;10.41;70.76;99715.44;5081727;28;20027;-65
2022/04/05 11:19:40;;;;;;;8.23;5.13;;;;;;;10.53;71.28;99704.34;5093547;28;20040;-65
2022/04/05 11:22:27;;;;;;;9.15;5.57;;;;;;;10.46;71.22;99705.50;5093489;28;20429;-65
2022/04/05 11:24:55;;;;;;;9.10;4.95;;;;;;;10.45;71.84;99706.44;5093069;28;20031;-65
2022/04/05 11:27:26;;;;;;;8.90;5.53;;;;;;;10.45;73.94;99700.25;5094050;28;20028;-65
2022/04/05 11:30:28;;;;;;;7.70;4.47;;;;;;;10.48;73.07;99703.66;5093090;28;20016;-65
2022/04/05 11:33:06;;;;;;;9.48;5.68;;;;;;;10.50;73.39;99704.47;5093284;28;20479;-65
2022/04/05 11:36:02;;;;;;;8.27;4.47;;;;;;;10.54;72.72;99700.75;5092993;28;20054;-65
2022/04/05 11:38:31;;;;;;;7.90;5.32;;;;;;;10.50;74.05;99704.47;5070092;28;20566;-65
2022/04/05 11:41:04;;;;;;;8.00;4.47;;;;;;;10.68;73.44;99699.38;5068901;28;20510;-65
2022/04/05 11:43:41;;;;;;;10.95;5.53;;;;;;;10.54;74.26;99699.91;5071134;28;20029;-65